Terminal Aerodrome Forecast
Issued by NWS Cleveland, OH

Home | Current Version | Previous Version | Graphics & Text | Print | Product List | Glossary Off
Versions: 1 2 3 4 5 6 7 8 9 10 11 12 13

011
FTUS41 KCLE 282320
TAFERI
TAF
KERI 282320Z 2900/2924 VRB03KT P6SM OVC200
     FM291200 05007KT P6SM SCT045 BKN200
     FM291600 03012KT P6SM SCT045 BKN250=

USA.gov is the U.S. government's official web portal to all federal, state and local government web resources and services.